sensor_id;sensor_type;location;lat;lon;timestamp;P1;durP1;ratioP1;P2;durP2;ratioP2
7383;SDS011;3733;47.994;8.820;2022-07-22T00:00:51;10.50;;;7.80;;
7383;SDS011;3733;47.994;8.820;2022-07-22T00:03:17;9.70;;;7.20;;
7383;SDS011;3733;47.994;8.820;2022-07-22T00:05:42;8.00;;;6.77;;
7383;SDS011;3733;47.994;8.820;2022-07-22T00:08:08;13.33;;;7.40;;
7383;SDS011;3733;47.994;8.820;2022-07-22T00:10:34;9.50;;;7.33;;
7383;SDS011;3733;47.994;8.820;2022-07-22T00:12:59;8.33;;;6.93;;
7383;SDS011;3733;47.994;8.820;2022-07-22T00:15:25;8.63;;;6.90;;
7383;SDS011;3733;47.994;8.820;2022-07-22T00:17:51;10.70;;;6.80;;
7383;SDS011;3733;47.994;8.820;2022-07-22T00:20:16;10.83;;;7.90;;
7383;SDS011;3733;47.994;8.820;2022-07-22T00:22:44;8.30;;;6.87;;
7383;SDS011;3733;47.994;8.820;2022-07-22T00:25:09;8.27;;;6.63;;
7383;SDS011;3733;47.994;8.820;2022-07-22T00:27:35;8.63;;;7.03;;
7383;SDS011;3733;47.994;8.820;2022-07-22T00:30:01;10.50;;;7.50;;
7383;SDS011;3733;47.994;8.820;2022-07-22T00:32:28;9.70;;;7.47;;
7383;SDS011;3733;47.994;8.820;2022-07-22T00:34:53;8.70;;;7.17;;
7383;SDS011;3733;47.994;8.820;2022-07-22T00:37:19;10.40;;;6.97;;
7383;SDS011;3733;47.994;8.820;2022-07-22T00:39:45;7.80;;;7.00;;
7383;SDS011;3733;47.994;8.820;2022-07-22T00:42:12;10.07;;;7.37;;
7383;SDS011;3733;47.994;8.820;2022-07-22T00:44:39;11.43;;;6.80;;
7383;SDS011;3733;47.994;8.820;2022-07-22T00:47:04;9.47;;;7.40;;
7383;SDS011;3733;47.994;8.820;2022-07-22T00:49:31;9.73;;;7.10;;
7383;SDS011;3733;47.994;8.820;2022-07-22T00:51:56;15.03;;;7.80;;
7383;SDS011;3733;47.994;8.820;2022-07-22T00:54:22;10.07;;;7.60;;
7383;SDS011;3733;47.994;8.820;2022-07-22T00:56:48;10.90;;;7.83;;
7383;SDS011;3733;47.994;8.820;2022-07-22T00:59:14;11.57;;;6.97;;
7383;SDS011;3733;47.994;8.820;2022-07-22T01:01:40;10.37;;;7.70;;
7383;SDS011;3733;47.994;8.820;2022-07-22T01:04:06;14.90;;;8.23;;
7383;SDS011;3733;47.994;8.820;2022-07-22T01:06:32;9.70;;;7.90;;
7383;SDS011;3733;47.994;8.820;2022-07-22T01:08:58;9.53;;;7.20;;
7383;SDS011;3733;47.994;8.820;2022-07-22T01:11:24;9.33;;;7.40;;
7383;SDS011;3733;47.994;8.820;2022-07-22T01:13:51;8.20;;;7.27;;
7383;SDS011;3733;47.994;8.820;2022-07-22T01:16:18;10.70;;;7.93;;
7383;SDS011;3733;47.994;8.820;2022-07-22T01:18:45;12.40;;;7.13;;
7383;SDS011;3733;47.994;8.820;2022-07-22T01:21:11;12.93;;;7.77;;
7383;SDS011;3733;47.994;8.820;2022-07-22T01:23:37;11.67;;;7.40;;
7383;SDS011;3733;47.994;8.820;2022-07-22T01:26:03;11.37;;;7.40;;
7383;SDS011;3733;47.994;8.820;2022-07-22T01:28:29;8.47;;;7.13;;
7383;SDS011;3733;47.994;8.820;2022-07-22T01:30:54;8.90;;;7.17;;
7383;SDS011;3733;47.994;8.820;2022-07-22T01:33:21;8.03;;;7.23;;
7383;SDS011;3733;47.994;8.820;2022-07-22T01:35:48;8.60;;;7.03;;
7383;SDS011;3733;47.994;8.820;2022-07-22T01:38:15;9.90;;;7.83;;
7383;SDS011;3733;47.994;8.820;2022-07-22T01:40:42;9.33;;;8.10;;
7383;SDS011;3733;47.994;8.820;2022-07-22T01:43:08;9.47;;;7.20;;
7383;SDS011;3733;47.994;8.820;2022-07-22T01:45:34;13.07;;;7.40;;
7383;SDS011;3733;47.994;8.820;2022-07-22T01:48:00;12.53;;;7.60;;
7383;SDS011;3733;47.994;8.820;2022-07-22T01:50:26;9.40;;;7.43;;
7383;SDS011;3733;47.994;8.820;2022-07-22T01:52:52;12.57;;;7.17;;
7383;SDS011;3733;47.994;8.820;2022-07-22T01:55:18;10.20;;;7.30;;
7383;SDS011;3733;47.994;8.820;2022-07-22T01:57:43;12.43;;;7.87;;
7383;SDS011;3733;47.994;8.820;2022-07-22T02:00:09;9.23;;;7.90;;
7383;SDS011;3733;47.994;8.820;2022-07-22T02:02:36;8.90;;;8.00;;
7383;SDS011;3733;47.994;8.820;2022-07-22T02:05:03;12.40;;;8.20;;
7383;SDS011;3733;47.994;8.820;2022-07-22T02:07:30;8.60;;;7.20;;
7383;SDS011;3733;47.994;8.820;2022-07-22T02:09:56;11.63;;;8.10;;
7383;SDS011;3733;47.994;8.820;2022-07-22T02:12:22;8.17;;;7.37;;
7383;SDS011;3733;47.994;8.820;2022-07-22T02:14:48;8.97;;;7.43;;
7383;SDS011;3733;47.994;8.820;2022-07-22T02:17:13;12.40;;;8.47;;
7383;SDS011;3733;47.994;8.820;2022-07-22T02:19:39;10.97;;;7.70;;
7383;SDS011;3733;47.994;8.820;2022-07-22T02:22:05;8.53;;;7.30;;
7383;SDS011;3733;47.994;8.820;2022-07-22T02:24:31;8.07;;;6.80;;
7383;SDS011;3733;47.994;8.820;2022-07-22T02:26:57;9.70;;;7.60;;
7383;SDS011;3733;47.994;8.820;2022-07-22T02:29:23;12.23;;;8.07;;
7383;SDS011;3733;47.994;8.820;2022-07-22T02:31:49;8.60;;;7.70;;
7383;SDS011;3733;47.994;8.820;2022-07-22T02:34:15;10.30;;;7.13;;
7383;SDS011;3733;47.994;8.820;2022-07-22T02:36:41;10.90;;;8.07;;
7383;SDS011;3733;47.994;8.820;2022-07-22T02:39:06;10.87;;;8.00;;
7383;SDS011;3733;47.994;8.820;2022-07-22T02:41:32;11.67;;;8.40;;
7383;SDS011;3733;47.994;8.820;2022-07-22T02:43:58;10.23;;;8.30;;
7383;SDS011;3733;47.994;8.820;2022-07-22T02:46:24;8.53;;;7.73;;
7383;SDS011;3733;47.994;8.820;2022-07-22T02:48:50;10.40;;;8.07;;
7383;SDS011;3733;47.994;8.820;2022-07-22T02:51:16;13.90;;;8.83;;
7383;SDS011;3733;47.994;8.820;2022-07-22T02:53:42;9.40;;;8.40;;
7383;SDS011;3733;47.994;8.820;2022-07-22T02:56:07;11.87;;;8.03;;
7383;SDS011;3733;47.994;8.820;2022-07-22T02:58:33;12.27;;;8.20;;
7383;SDS011;3733;47.994;8.820;2022-07-22T03:00:59;14.30;;;8.30;;
7383;SDS011;3733;47.994;8.820;2022-07-22T03:03:25;8.80;;;7.10;;
7383;SDS011;3733;47.994;8.820;2022-07-22T03:05:51;10.20;;;7.83;;
7383;SDS011;3733;47.994;8.820;2022-07-22T03:08:17;11.37;;;7.90;;
7383;SDS011;3733;47.994;8.820;2022-07-22T03:10:43;8.73;;;7.80;;
7383;SDS011;3733;47.994;8.820;2022-07-22T03:13:09;10.03;;;8.10;;
7383;SDS011;3733;47.994;8.820;2022-07-22T03:15:35;10.93;;;8.30;;
7383;SDS011;3733;47.994;8.820;2022-07-22T03:18:00;12.23;;;7.87;;
7383;SDS011;3733;47.994;8.820;2022-07-22T03:20:26;14.10;;;8.23;;
7383;SDS011;3733;47.994;8.820;2022-07-22T03:22:52;13.83;;;8.00;;
7383;SDS011;3733;47.994;8.820;2022-07-22T03:25:17;12.53;;;8.10;;
7383;SDS011;3733;47.994;8.820;2022-07-22T03:27:43;9.47;;;8.47;;
7383;SDS011;3733;47.994;8.820;2022-07-22T03:30:09;11.67;;;8.53;;
7383;SDS011;3733;47.994;8.820;2022-07-22T03:32:35;10.83;;;8.37;;
7383;SDS011;3733;47.994;8.820;2022-07-22T03:35:01;11.80;;;8.00;;
7383;SDS011;3733;47.994;8.820;2022-07-22T03:37:27;12.40;;;7.70;;
7383;SDS011;3733;47.994;8.820;2022-07-22T03:39:53;12.63;;;8.67;;
7383;SDS011;3733;47.994;8.820;2022-07-22T03:42:18;14.67;;;8.70;;
7383;SDS011;3733;47.994;8.820;2022-07-22T03:44:44;14.67;;;9.07;;
7383;SDS011;3733;47.994;8.820;2022-07-22T03:47:10;11.20;;;8.23;;
7383;SDS011;3733;47.994;8.820;2022-07-22T03:49:35;10.40;;;7.67;;
7383;SDS011;3733;47.994;8.820;2022-07-22T03:52:01;18.37;;;8.50;;
7383;SDS011;3733;47.994;8.820;2022-07-22T03:54:26;11.83;;;8.03;;
7383;SDS011;3733;47.994;8.820;2022-07-22T03:56:52;11.57;;;7.60;;
7383;SDS011;3733;47.994;8.820;2022-07-22T03:59:18;17.00;;;8.13;;
7383;SDS011;3733;47.994;8.820;2022-07-22T04:01:43;10.30;;;8.00;;
7383;SDS011;3733;47.994;8.820;2022-07-22T04:04:09;11.50;;;8.10;;
7383;SDS011;3733;47.994;8.820;2022-07-22T04:06:34;9.07;;;7.87;;
7383;SDS011;3733;47.994;8.820;2022-07-22T04:09:00;13.17;;;8.77;;
7383;SDS011;3733;47.994;8.820;2022-07-22T04:11:26;11.90;;;9.00;;
7383;SDS011;3733;47.994;8.820;2022-07-22T04:13:52;10.70;;;8.30;;
7383;SDS011;3733;47.994;8.820;2022-07-22T04:16:18;11.13;;;8.97;;
7383;SDS011;3733;47.994;8.820;2022-07-22T04:18:44;11.10;;;8.30;;
7383;SDS011;3733;47.994;8.820;2022-07-22T04:21:09;10.73;;;9.57;;
7383;SDS011;3733;47.994;8.820;2022-07-22T04:23:35;12.50;;;9.03;;
7383;SDS011;3733;47.994;8.820;2022-07-22T04:26:01;13.13;;;9.30;;
7383;SDS011;3733;47.994;8.820;2022-07-22T04:28:27;11.23;;;9.23;;
7383;SDS011;3733;47.994;8.820;2022-07-22T04:30:52;11.57;;;8.97;;
7383;SDS011;3733;47.994;8.820;2022-07-22T04:33:18;12.60;;;9.27;;
7383;SDS011;3733;47.994;8.820;2022-07-22T04:35:43;13.43;;;8.93;;
7383;SDS011;3733;47.994;8.820;2022-07-22T04:38:09;9.03;;;7.93;;
7383;SDS011;3733;47.994;8.820;2022-07-22T04:40:35;19.00;;;9.53;;
7383;SDS011;3733;47.994;8.820;2022-07-22T04:43:01;11.97;;;8.50;;
7383;SDS011;3733;47.994;8.820;2022-07-22T04:45:26;13.17;;;9.83;;
7383;SDS011;3733;47.994;8.820;2022-07-22T04:47:52;10.70;;;9.00;;
7383;SDS011;3733;47.994;8.820;2022-07-22T04:50:17;9.80;;;8.53;;
7383;SDS011;3733;47.994;8.820;2022-07-22T04:52:43;11.90;;;8.13;;
7383;SDS011;3733;47.994;8.820;2022-07-22T04:55:10;15.20;;;9.53;;
7383;SDS011;3733;47.994;8.820;2022-07-22T04:57:35;13.00;;;8.60;;
7383;SDS011;3733;47.994;8.820;2022-07-22T05:00:01;14.60;;;8.97;;
7383;SDS011;3733;47.994;8.820;2022-07-22T05:02:28;10.67;;;8.73;;
7383;SDS011;3733;47.994;8.820;2022-07-22T05:04:54;11.73;;;9.00;;
7383;SDS011;3733;47.994;8.820;2022-07-22T05:07:19;12.03;;;8.60;;
7383;SDS011;3733;47.994;8.820;2022-07-22T05:09:45;12.10;;;8.10;;
7383;SDS011;3733;47.994;8.820;2022-07-22T05:12:10;13.70;;;8.53;;
7383;SDS011;3733;47.994;8.820;2022-07-22T05:14:36;11.97;;;8.97;;
7383;SDS011;3733;47.994;8.820;2022-07-22T05:17:02;11.63;;;8.63;;
7383;SDS011;3733;47.994;8.820;2022-07-22T05:19:27;16.10;;;8.90;;
7383;SDS011;3733;47.994;8.820;2022-07-22T05:21:53;16.20;;;8.97;;
7383;SDS011;3733;47.994;8.820;2022-07-22T05:24:18;10.47;;;7.97;;
7383;SDS011;3733;47.994;8.820;2022-07-22T05:26:44;14.93;;;9.00;;
7383;SDS011;3733;47.994;8.820;2022-07-22T05:29:10;13.50;;;8.20;;
7383;SDS011;3733;47.994;8.820;2022-07-22T05:31:35;13.00;;;9.37;;
7383;SDS011;3733;47.994;8.820;2022-07-22T05:34:01;11.10;;;8.50;;
7383;SDS011;3733;47.994;8.820;2022-07-22T05:36:28;13.87;;;9.30;;
7383;SDS011;3733;47.994;8.820;2022-07-22T05:38:54;18.27;;;11.30;;
7383;SDS011;3733;47.994;8.820;2022-07-22T05:41:19;12.00;;;10.20;;
7383;SDS011;3733;47.994;8.820;2022-07-22T05:43:45;16.83;;;12.10;;
7383;SDS011;3733;47.994;8.820;2022-07-22T05:46:10;12.37;;;9.53;;
7383;SDS011;3733;47.994;8.820;2022-07-22T05:48:36;11.93;;;9.13;;
7383;SDS011;3733;47.994;8.820;2022-07-22T05:51:02;14.53;;;9.30;;
7383;SDS011;3733;47.994;8.820;2022-07-22T05:53:27;11.30;;;8.20;;
7383;SDS011;3733;47.994;8.820;2022-07-22T05:55:53;12.10;;;8.70;;
7383;SDS011;3733;47.994;8.820;2022-07-22T05:58:19;13.60;;;8.10;;
7383;SDS011;3733;47.994;8.820;2022-07-22T06:00:44;10.67;;;8.20;;
7383;SDS011;3733;47.994;8.820;2022-07-22T06:03:10;11.00;;;8.40;;
7383;SDS011;3733;47.994;8.820;2022-07-22T06:05:35;9.13;;;8.23;;
7383;SDS011;3733;47.994;8.820;2022-07-22T06:08:01;10.17;;;8.60;;
7383;SDS011;3733;47.994;8.820;2022-07-22T06:10:27;11.40;;;8.10;;
7383;SDS011;3733;47.994;8.820;2022-07-22T06:12:53;15.13;;;8.97;;
7383;SDS011;3733;47.994;8.820;2022-07-22T06:15:18;13.13;;;8.57;;
7383;SDS011;3733;47.994;8.820;2022-07-22T06:17:44;11.20;;;8.67;;
7383;SDS011;3733;47.994;8.820;2022-07-22T06:20:10;12.37;;;8.27;;
7383;SDS011;3733;47.994;8.820;2022-07-22T06:22:35;11.60;;;8.60;;
7383;SDS011;3733;47.994;8.820;2022-07-22T06:25:04;11.20;;;7.70;;
7383;SDS011;3733;47.994;8.820;2022-07-22T06:27:30;11.23;;;8.80;;
7383;SDS011;3733;47.994;8.820;2022-07-22T06:29:56;9.90;;;8.87;;
7383;SDS011;3733;47.994;8.820;2022-07-22T06:32:21;15.80;;;9.13;;
7383;SDS011;3733;47.994;8.820;2022-07-22T06:34:47;11.10;;;8.27;;
7383;SDS011;3733;47.994;8.820;2022-07-22T06:37:13;14.93;;;9.57;;
7383;SDS011;3733;47.994;8.820;2022-07-22T06:39:38;16.90;;;8.93;;
7383;SDS011;3733;47.994;8.820;2022-07-22T06:42:04;13.60;;;8.97;;
7383;SDS011;3733;47.994;8.820;2022-07-22T06:44:29;14.47;;;8.50;;
7383;SDS011;3733;47.994;8.820;2022-07-22T06:46:55;9.57;;;8.60;;
7383;SDS011;3733;47.994;8.820;2022-07-22T06:49:21;11.70;;;8.50;;
7383;SDS011;3733;47.994;8.820;2022-07-22T06:51:46;12.90;;;8.07;;
7383;SDS011;3733;47.994;8.820;2022-07-22T06:54:12;20.87;;;8.70;;
7383;SDS011;3733;47.994;8.820;2022-07-22T06:56:38;11.10;;;8.90;;
7383;SDS011;3733;47.994;8.820;2022-07-22T06:59:03;11.17;;;8.87;;
7383;SDS011;3733;47.994;8.820;2022-07-22T07:01:29;9.53;;;8.53;;
7383;SDS011;3733;47.994;8.820;2022-07-22T07:03:55;13.20;;;8.67;;
7383;SDS011;3733;47.994;8.820;2022-07-22T07:06:20;14.63;;;8.50;;
7383;SDS011;3733;47.994;8.820;2022-07-22T07:08:46;12.40;;;8.60;;
7383;SDS011;3733;47.994;8.820;2022-07-22T07:11:11;9.23;;;7.77;;
7383;SDS011;3733;47.994;8.820;2022-07-22T07:13:37;15.37;;;8.47;;
7383;SDS011;3733;47.994;8.820;2022-07-22T07:16:03;11.63;;;8.07;;
7383;SDS011;3733;47.994;8.820;2022-07-22T07:18:29;9.10;;;8.00;;
7383;SDS011;3733;47.994;8.820;2022-07-22T07:20:54;13.43;;;8.60;;
7383;SDS011;3733;47.994;8.820;2022-07-22T07:23:20;14.13;;;8.27;;
7383;SDS011;3733;47.994;8.820;2022-07-22T07:25:46;9.93;;;7.77;;
7383;SDS011;3733;47.994;8.820;2022-07-22T07:28:12;10.03;;;7.60;;
7383;SDS011;3733;47.994;8.820;2022-07-22T07:30:37;11.63;;;7.83;;
7383;SDS011;3733;47.994;8.820;2022-07-22T07:33:03;9.40;;;7.87;;
7383;SDS011;3733;47.994;8.820;2022-07-22T07:35:29;10.60;;;7.60;;
7383;SDS011;3733;47.994;8.820;2022-07-22T07:37:55;16.43;;;7.90;;
7383;SDS011;3733;47.994;8.820;2022-07-22T07:40:20;10.10;;;7.80;;
7383;SDS011;3733;47.994;8.820;2022-07-22T07:42:46;12.30;;;7.80;;
7383;SDS011;3733;47.994;8.820;2022-07-22T07:45:12;8.80;;;7.80;;
7383;SDS011;3733;47.994;8.820;2022-07-22T07:47:38;10.73;;;7.60;;
7383;SDS011;3733;47.994;8.820;2022-07-22T07:50:04;12.20;;;8.73;;
7383;SDS011;3733;47.994;8.820;2022-07-22T07:52:36;11.00;;;7.67;;
7383;SDS011;3733;47.994;8.820;2022-07-22T07:55:03;15.13;;;12.97;;
7383;SDS011;3733;47.994;8.820;2022-07-22T07:57:30;10.83;;;9.10;;
7383;SDS011;3733;47.994;8.820;2022-07-22T07:59:55;15.00;;;10.10;;
7383;SDS011;3733;47.994;8.820;2022-07-22T08:02:21;11.33;;;9.73;;
7383;SDS011;3733;47.994;8.820;2022-07-22T08:04:47;13.20;;;8.60;;
7383;SDS011;3733;47.994;8.820;2022-07-22T08:07:12;17.43;;;12.30;;
7383;SDS011;3733;47.994;8.820;2022-07-22T08:09:38;8.80;;;7.30;;
7383;SDS011;3733;47.994;8.820;2022-07-22T08:12:04;13.27;;;8.77;;
7383;SDS011;3733;47.994;8.820;2022-07-22T08:14:31;8.40;;;7.17;;
7383;SDS011;3733;47.994;8.820;2022-07-22T08:16:56;14.67;;;10.20;;
7383;SDS011;3733;47.994;8.820;2022-07-22T08:19:23;16.27;;;8.43;;
7383;SDS011;3733;47.994;8.820;2022-07-22T08:21:48;14.33;;;9.23;;
7383;SDS011;3733;47.994;8.820;2022-07-22T08:24:14;13.03;;;8.93;;
7383;SDS011;3733;47.994;8.820;2022-07-22T08:26:39;11.00;;;7.67;;
7383;SDS011;3733;47.994;8.820;2022-07-22T08:29:05;10.70;;;8.77;;
7383;SDS011;3733;47.994;8.820;2022-07-22T08:31:34;12.23;;;7.50;;
7383;SDS011;3733;47.994;8.820;2022-07-22T08:34:01;16.23;;;8.30;;
7383;SDS011;3733;47.994;8.820;2022-07-22T08:36:28;13.23;;;9.47;;
7383;SDS011;3733;47.994;8.820;2022-07-22T08:38:53;11.50;;;8.90;;
7383;SDS011;3733;47.994;8.820;2022-07-22T08:41:19;8.17;;;7.33;;
7383;SDS011;3733;47.994;8.820;2022-07-22T08:43:47;15.20;;;7.97;;
7383;SDS011;3733;47.994;8.820;2022-07-22T08:46:13;13.97;;;7.93;;
7383;SDS011;3733;47.994;8.820;2022-07-22T08:48:39;10.27;;;7.37;;
7383;SDS011;3733;47.994;8.820;2022-07-22T08:51:06;15.80;;;8.00;;
7383;SDS011;3733;47.994;8.820;2022-07-22T08:53:31;10.77;;;7.60;;
7383;SDS011;3733;47.994;8.820;2022-07-22T08:55:57;9.20;;;8.00;;
7383;SDS011;3733;47.994;8.820;2022-07-22T08:58:24;8.43;;;7.40;;
7383;SDS011;3733;47.994;8.820;2022-07-22T09:01:09;10.50;;;8.20;;
7383;SDS011;3733;47.994;8.820;2022-07-22T09:03:44;10.00;;;7.10;;
7383;SDS011;3733;47.994;8.820;2022-07-22T09:06:15;10.20;;;7.57;;
7383;SDS011;3733;47.994;8.820;2022-07-22T09:11:28;8.60;;;7.53;;
7383;SDS011;3733;47.994;8.820;2022-07-22T09:13:55;13.50;;;7.67;;
7383;SDS011;3733;47.994;8.820;2022-07-22T09:16:38;11.90;;;7.90;;
7383;SDS011;3733;47.994;8.820;2022-07-22T09:19:09;9.07;;;6.90;;
7383;SDS011;3733;47.994;8.820;2022-07-22T09:21:36;9.50;;;7.40;;
7383;SDS011;3733;47.994;8.820;2022-07-22T09:24:08;10.93;;;6.67;;
7383;SDS011;3733;47.994;8.820;2022-07-22T09:26:38;12.80;;;7.10;;
7383;SDS011;3733;47.994;8.820;2022-07-22T09:29:04;7.20;;;6.50;;
7383;SDS011;3733;47.994;8.820;2022-07-22T09:31:35;10.23;;;7.57;;
7383;SDS011;3733;47.994;8.820;2022-07-22T09:34:02;8.77;;;7.20;;
7383;SDS011;3733;47.994;8.820;2022-07-22T09:36:29;11.17;;;7.27;;
7383;SDS011;3733;47.994;8.820;2022-07-22T09:38:55;15.23;;;7.27;;
7383;SDS011;3733;47.994;8.820;2022-07-22T09:41:22;7.60;;;6.70;;
7383;SDS011;3733;47.994;8.820;2022-07-22T09:43:47;10.37;;;6.27;;
7383;SDS011;3733;47.994;8.820;2022-07-22T09:46:15;8.23;;;6.43;;
7383;SDS011;3733;47.994;8.820;2022-07-22T09:48:41;9.83;;;6.70;;
7383;SDS011;3733;47.994;8.820;2022-07-22T09:51:08;12.07;;;6.33;;
7383;SDS011;3733;47.994;8.820;2022-07-22T09:53:34;7.80;;;6.10;;
7383;SDS011;3733;47.994;8.820;2022-07-22T09:56:00;9.30;;;6.40;;
7383;SDS011;3733;47.994;8.820;2022-07-22T09:58:27;13.37;;;6.40;;
7383;SDS011;3733;47.994;8.820;2022-07-22T10:00:54;7.50;;;6.30;;
7383;SDS011;3733;47.994;8.820;2022-07-22T10:05:55;7.00;;;6.13;;
7383;SDS011;3733;47.994;8.820;2022-07-22T10:08:22;7.23;;;6.30;;
7383;SDS011;3733;47.994;8.820;2022-07-22T10:10:50;7.50;;;6.40;;
7383;SDS011;3733;47.994;8.820;2022-07-22T10:13:17;9.60;;;6.50;;
7383;SDS011;3733;47.994;8.820;2022-07-22T10:15:44;7.93;;;6.10;;
7383;SDS011;3733;47.994;8.820;2022-07-22T10:18:14;9.23;;;6.20;;
7383;SDS011;3733;47.994;8.820;2022-07-22T10:20:42;9.47;;;7.00;;
7383;SDS011;3733;47.994;8.820;2022-07-22T10:23:09;10.70;;;6.60;;
7383;SDS011;3733;47.994;8.820;2022-07-22T10:28:20;8.73;;;6.90;;
7383;SDS011;3733;47.994;8.820;2022-07-22T10:30:46;7.80;;;7.10;;
7383;SDS011;3733;47.994;8.820;2022-07-22T10:33:19;9.70;;;7.00;;
7383;SDS011;3733;47.994;8.820;2022-07-22T10:38:24;13.25;;;6.90;;
7383;SDS011;3733;47.994;8.820;2022-07-22T10:40:53;9.13;;;6.03;;
7383;SDS011;3733;47.994;8.820;2022-07-22T10:43:25;9.40;;;7.78;;
7383;SDS011;3733;47.994;8.820;2022-07-22T10:48:21;8.40;;;7.07;;
7383;SDS011;3733;47.994;8.820;2022-07-22T10:50:49;9.32;;;7.03;;
7383;SDS011;3733;47.994;8.820;2022-07-22T11:01:43;6.95;;;5.93;;
7383;SDS011;3733;47.994;8.820;2022-07-22T11:06:40;8.15;;;6.38;;
7383;SDS011;3733;47.994;8.820;2022-07-22T11:09:10;7.88;;;6.13;;
7383;SDS011;3733;47.994;8.820;2022-07-22T11:11:38;12.38;;;6.47;;
7383;SDS011;3733;47.994;8.820;2022-07-22T11:17:11;10.05;;;6.35;;
7383;SDS011;3733;47.994;8.820;2022-07-22T11:19:39;6.95;;;6.25;;
7383;SDS011;3733;47.994;8.820;2022-07-22T11:22:09;11.65;;;5.95;;
7383;SDS011;3733;47.994;8.820;2022-07-22T11:24:37;6.85;;;6.15;;
7383;SDS011;3733;47.994;8.820;2022-07-22T11:27:06;12.32;;;5.95;;
7383;SDS011;3733;47.994;8.820;2022-07-22T11:29:38;10.38;;;6.15;;
7383;SDS011;3733;47.994;8.820;2022-07-22T11:32:07;9.85;;;6.28;;
7383;SDS011;3733;47.994;8.820;2022-07-22T11:34:38;7.65;;;5.90;;
7383;SDS011;3733;47.994;8.820;2022-07-22T11:37:13;7.07;;;6.38;;
7383;SDS011;3733;47.994;8.820;2022-07-22T11:39:39;7.20;;;6.45;;
7383;SDS011;3733;47.994;8.820;2022-07-22T11:42:06;8.68;;;6.25;;
7383;SDS011;3733;47.994;8.820;2022-07-22T11:44:33;6.90;;;6.30;;
7383;SDS011;3733;47.994;8.820;2022-07-22T11:47:02;8.63;;;6.75;;
7383;SDS011;3733;47.994;8.820;2022-07-22T11:49:30;7.30;;;6.35;;
7383;SDS011;3733;47.994;8.820;2022-07-22T11:51:58;7.45;;;6.65;;
7383;SDS011;3733;47.994;8.820;2022-07-22T11:54:25;8.85;;;5.93;;
7383;SDS011;3733;47.994;8.820;2022-07-22T11:56:51;7.97;;;6.00;;
7383;SDS011;3733;47.994;8.820;2022-07-22T11:59:16;9.82;;;6.18;;
7383;SDS011;3733;47.994;8.820;2022-07-22T12:01:43;10.73;;;6.63;;
7383;SDS011;3733;47.994;8.820;2022-07-22T12:04:14;12.38;;;6.47;;
7383;SDS011;3733;47.994;8.820;2022-07-22T12:06:44;7.47;;;6.53;;
7383;SDS011;3733;47.994;8.820;2022-07-22T12:09:11;7.13;;;5.90;;
7383;SDS011;3733;47.994;8.820;2022-07-22T12:11:45;6.70;;;6.00;;
7383;SDS011;3733;47.994;8.820;2022-07-22T12:15:13;7.72;;;5.88;;
7383;SDS011;3733;47.994;8.820;2022-07-22T12:17:11;6.68;;;5.97;;
7383;SDS011;3733;47.994;8.820;2022-07-22T12:19:38;14.02;;;6.80;;
7383;SDS011;3733;47.994;8.820;2022-07-22T12:24:40;11.27;;;6.20;;
7383;SDS011;3733;47.994;8.820;2022-07-22T12:27:11;10.15;;;6.70;;
7383;SDS011;3733;47.994;8.820;2022-07-22T12:32:05;7.90;;;6.50;;
7383;SDS011;3733;47.994;8.820;2022-07-22T12:34:42;7.43;;;6.13;;
7383;SDS011;3733;47.994;8.820;2022-07-22T12:37:15;8.05;;;6.05;;
7383;SDS011;3733;47.994;8.820;2022-07-22T12:42:21;7.00;;;5.75;;
7383;SDS011;3733;47.994;8.820;2022-07-22T12:44:52;6.85;;;5.60;;
7383;SDS011;3733;47.994;8.820;2022-07-22T12:47:45;10.98;;;6.38;;
7383;SDS011;3733;47.994;8.820;2022-07-22T12:50:18;6.38;;;5.68;;
7383;SDS011;3733;47.994;8.820;2022-07-22T12:52:47;7.68;;;5.93;;
7383;SDS011;3733;47.994;8.820;2022-07-22T12:55:14;5.38;;;4.88;;
7383;SDS011;3733;47.994;8.820;2022-07-22T12:57:40;5.70;;;5.10;;
7383;SDS011;3733;47.994;8.820;2022-07-22T13:00:06;5.78;;;5.28;;
7383;SDS011;3733;47.994;8.820;2022-07-22T13:02:32;6.07;;;4.78;;
7383;SDS011;3733;47.994;8.820;2022-07-22T13:04:59;7.30;;;5.40;;
7383;SDS011;3733;47.994;8.820;2022-07-22T13:07:25;8.93;;;5.45;;
7383;SDS011;3733;47.994;8.820;2022-07-22T13:09:51;9.95;;;5.20;;
7383;SDS011;3733;47.994;8.820;2022-07-22T13:12:16;7.22;;;5.78;;
7383;SDS011;3733;47.994;8.820;2022-07-22T13:14:42;6.05;;;5.47;;
7383;SDS011;3733;47.994;8.820;2022-07-22T13:17:07;5.72;;;5.22;;
7383;SDS011;3733;47.994;8.820;2022-07-22T13:19:33;8.80;;;6.10;;
7383;SDS011;3733;47.994;8.820;2022-07-22T13:21:59;6.13;;;5.60;;
7383;SDS011;3733;47.994;8.820;2022-07-22T13:24:24;7.53;;;5.30;;
7383;SDS011;3733;47.994;8.820;2022-07-22T13:26:50;8.73;;;6.03;;
7383;SDS011;3733;47.994;8.820;2022-07-22T13:29:16;6.75;;;6.00;;
7383;SDS011;3733;47.994;8.820;2022-07-22T13:31:42;6.30;;;5.70;;
7383;SDS011;3733;47.994;8.820;2022-07-22T13:34:07;6.40;;;5.80;;
7383;SDS011;3733;47.994;8.820;2022-07-22T13:36:33;6.93;;;6.22;;
7383;SDS011;3733;47.994;8.820;2022-07-22T13:38:59;9.75;;;6.15;;
7383;SDS011;3733;47.994;8.820;2022-07-22T13:41:26;7.18;;;5.82;;
7383;SDS011;3733;47.994;8.820;2022-07-22T13:43:52;8.90;;;6.22;;
7383;SDS011;3733;47.994;8.820;2022-07-22T13:46:18;8.73;;;6.05;;
7383;SDS011;3733;47.994;8.820;2022-07-22T13:48:43;6.95;;;6.25;;
7383;SDS011;3733;47.994;8.820;2022-07-22T13:51:10;6.55;;;5.88;;
7383;SDS011;3733;47.994;8.820;2022-07-22T13:53:36;10.07;;;6.78;;
7383;SDS011;3733;47.994;8.820;2022-07-22T13:56:02;6.80;;;6.10;;
7383;SDS011;3733;47.994;8.820;2022-07-22T13:58:28;8.55;;;6.40;;
7383;SDS011;3733;47.994;8.820;2022-07-22T14:00:54;8.20;;;6.00;;
7383;SDS011;3733;47.994;8.820;2022-07-22T14:03:20;6.10;;;5.45;;
7383;SDS011;3733;47.994;8.820;2022-07-22T14:05:46;7.40;;;6.43;;
7383;SDS011;3733;47.994;8.820;2022-07-22T14:08:11;5.63;;;5.13;;
7383;SDS011;3733;47.994;8.820;2022-07-22T14:10:37;6.47;;;5.72;;
7383;SDS011;3733;47.994;8.820;2022-07-22T14:13:03;5.93;;;5.40;;
7383;SDS011;3733;47.994;8.820;2022-07-22T14:15:28;6.40;;;5.80;;
7383;SDS011;3733;47.994;8.820;2022-07-22T14:17:54;5.80;;;5.30;;
7383;SDS011;3733;47.994;8.820;2022-07-22T14:20:20;6.30;;;5.68;;
7383;SDS011;3733;47.994;8.820;2022-07-22T14:22:46;6.53;;;5.22;;
7383;SDS011;3733;47.994;8.820;2022-07-22T14:25:11;6.47;;;5.88;;
7383;SDS011;3733;47.994;8.820;2022-07-22T14:27:37;7.88;;;6.13;;
7383;SDS011;3733;47.994;8.820;2022-07-22T14:30:03;11.40;;;5.45;;
7383;SDS011;3733;47.994;8.820;2022-07-22T14:32:29;6.72;;;5.55;;
7383;SDS011;3733;47.994;8.820;2022-07-22T14:34:55;7.15;;;5.97;;
7383;SDS011;3733;47.994;8.820;2022-07-22T14:37:20;6.88;;;5.85;;
7383;SDS011;3733;47.994;8.820;2022-07-22T14:39:47;7.68;;;5.65;;
7383;SDS011;3733;47.994;8.820;2022-07-22T14:42:12;15.02;;;5.65;;
7383;SDS011;3733;47.994;8.820;2022-07-22T14:44:38;5.90;;;5.38;;
7383;SDS011;3733;47.994;8.820;2022-07-22T14:47:04;6.97;;;6.03;;
7383;SDS011;3733;47.994;8.820;2022-07-22T14:49:29;7.00;;;6.15;;
7383;SDS011;3733;47.994;8.820;2022-07-22T14:51:55;7.75;;;6.68;;
7383;SDS011;3733;47.994;8.820;2022-07-22T14:54:20;8.75;;;6.78;;
7383;SDS011;3733;47.994;8.820;2022-07-22T14:56:46;8.15;;;6.43;;
7383;SDS011;3733;47.994;8.820;2022-07-22T14:59:12;8.55;;;6.55;;
7383;SDS011;3733;47.994;8.820;2022-07-22T15:01:37;7.55;;;6.85;;
7383;SDS011;3733;47.994;8.820;2022-07-22T15:04:03;7.20;;;6.60;;
7383;SDS011;3733;47.994;8.820;2022-07-22T15:06:29;7.22;;;6.20;;
7383;SDS011;3733;47.994;8.820;2022-07-22T15:08:54;8.20;;;6.68;;
7383;SDS011;3733;47.994;8.820;2022-07-22T15:11:20;7.60;;;6.70;;
7383;SDS011;3733;47.994;8.820;2022-07-22T15:13:46;9.38;;;5.93;;
7383;SDS011;3733;47.994;8.820;2022-07-22T15:16:12;11.13;;;6.55;;
7383;SDS011;3733;47.994;8.820;2022-07-22T15:18:38;7.22;;;6.43;;
7383;SDS011;3733;47.994;8.820;2022-07-22T15:21:04;7.78;;;7.03;;
7383;SDS011;3733;47.994;8.820;2022-07-22T15:23:30;7.95;;;7.15;;
7383;SDS011;3733;47.994;8.820;2022-07-22T15:25:56;9.23;;;6.88;;
7383;SDS011;3733;47.994;8.820;2022-07-22T15:28:23;7.53;;;6.78;;
7383;SDS011;3733;47.994;8.820;2022-07-22T15:30:48;13.80;;;6.95;;
7383;SDS011;3733;47.994;8.820;2022-07-22T15:33:14;7.70;;;6.88;;
7383;SDS011;3733;47.994;8.820;2022-07-22T15:35:40;10.13;;;7.05;;
7383;SDS011;3733;47.994;8.820;2022-07-22T15:38:05;8.20;;;7.40;;